Pine Run, South Dakota
Current Conditions -  °F | °C
As of 2:52 AM on Friday 24 Oct 2014 (Local Time) from KVTN Reporting Station
Clear Clear  
Wind Chill: 36°   Ceiling: Unl
Heat Index: 40°   Visibility: 10mi
Dew Point: 35°   Wind: 6mph
Humidity: 83%   Direction: 260°W
Pressure: 29.93"   Gusts: NA
Location:  43.1909°N, 100.475°W
Report Text: KVTN 240752Z AUTO 26005KT 10SM CLR 04/02 A2993 RMK AO2 SLP131 T00440017
Loading
Personal Weather Stations






























Interactive Weather Map
Tropical Storm Tracking
New forecast layout! Learn more

10-Day Weather Forecast

Advertisements
Track Severe Weather on mobile